Time;durP1;ratioP1;P1;durP2;ratioP2;P2;SDS_P1;SDS_P2;PMS_P1;PMS_P2;Temp;Humidity;BMP_temperature;BMP_pressure;BME280_temperature;BME280_humidity;BME280_pressure;Samples;Min_cycle;Max_cycle;Signal;HPM_P1;HPM_P2
2023/10/08 00:02:26;;;;;;;2.25;1.50;;;;;;;14.05;nan;61005.56;5011208;28;20180;-63
2023/10/08 00:04:52;;;;;;;3.17;1.75;;;;;;;14.12;nan;61098.78;5010891;28;20600;-63
2023/10/08 00:07:21;;;;;;;3.30;2.38;;;;;;;14.12;nan;60972.91;5009495;28;20180;-63
2023/10/08 00:09:48;;;;;;;1.73;1.63;;;;;;;14.35;nan;61031.09;5026548;28;20183;-62
2023/10/08 00:12:16;;;;;;;1.83;1.70;;;;;;;14.74;nan;61049.34;5011334;28;20220;-64
2023/10/08 00:14:44;;;;;;;1.60;1.42;;;;;;;14.80;nan;61053.53;5011571;28;20266;-63
2023/10/08 00:17:13;;;;;;;2.20;2.00;;;;;;;15.07;nan;61034.53;5018343;28;20727;-64
2023/10/08 00:19:42;;;;;;;1.30;1.20;;;;;;;14.95;nan;61312.22;5019548;28;20226;-62
2023/10/08 00:22:09;;;;;;;1.33;1.23;;;;;;;14.84;nan;61006.06;5018355;28;20168;-63
2023/10/08 00:24:34;;;;;;;3.08;1.75;;;;;;;14.90;nan;61031.38;5007181;28;20184;-63
2023/10/08 00:27:06;;;;;;;1.33;1.23;;;;;;;11.89;nan;61474.31;5013195;28;20265;-62
2023/10/08 00:29:32;;;;;;;2.45;1.58;;;;;;;15.26;nan;61019.88;5026588;28;20214;-63
2023/10/08 00:31:58;;;;;;;2.08;1.50;;;;;;;15.45;nan;61115.94;5011972;28;20180;-64
2023/10/08 00:34:24;;;;;;;1.00;1.00;;;;;;;15.57;nan;61103.19;5021806;28;20530;-64
2023/10/08 00:36:50;;;;;;;1.73;1.35;;;;;;;15.57;nan;61221.63;5031680;28;20175;-63
2023/10/08 00:39:34;;;;;;;1.58;1.48;;;;;;;15.60;nan;61129.16;4934140;28;20174;-62
2023/10/08 00:41:59;;;;;;;1.25;1.15;;;;;;;15.71;nan;61185.34;5031685;28;20211;-62
2023/10/08 00:44:29;;;;;;;2.22;1.83;;;;;;;15.62;nan;61085.66;5026800;28;20624;-62
2023/10/08 00:47:01;;;;;;;1.10;1.00;;;;;;;15.70;nan;61104.38;5010304;28;20207;-62
2023/10/08 00:54:54;;;;;;;2.00;1.80;;;;;;;13.52;nan;60954.72;5020486;28;20195;-62
2023/10/08 00:57:29;;;;;;;2.58;1.50;;;;;;;15.10;nan;60996.16;5031550;28;20215;-63
2023/10/08 00:59:58;;;;;;;1.20;1.20;;;;;;;15.09;nan;61188.56;5031374;28;20163;-62
2023/10/08 01:02:49;;;;;;;1.63;1.52;;;;;;;15.21;nan;61106.91;5031339;28;20175;-64
2023/10/08 01:05:25;;;;;;;2.20;1.77;;;;;;;15.01;nan;61051.47;5030842;28;20238;-63
2023/10/08 01:07:53;;;;;;;7.50;1.40;;;;;;;15.16;nan;61193.31;5031207;28;20166;-63
2023/10/08 01:10:20;;;;;;;1.55;1.45;;;;;;;15.09;nan;61069.66;5031243;28;20214;-63
2023/10/08 01:15:30;;;;;;;1.23;1.20;;;;;;;15.35;nan;61116.97;5031223;28;20190;-63
2023/10/08 01:18:06;;;;;;;1.88;1.20;;;;;;;15.40;nan;61117.44;5023677;28;20187;-62
2023/10/08 01:20:38;;;;;;;1.55;1.30;;;;;;;15.48;nan;61100.75;5021923;28;20285;-63
2023/10/08 01:23:12;;;;;;;2.10;1.42;;;;;;;15.70;nan;61156.47;5017240;28;20176;-61
2023/10/08 01:25:42;;;;;;;1.20;1.10;;;;;;;15.84;nan;61120.75;5012513;28;20659;-63
2023/10/08 01:28:14;;;;;;;1.50;1.40;;;;;;;15.82;nan;61146.25;5033422;28;20675;-63
2023/10/08 01:30:47;;;;;;;1.65;1.55;;;;;;;15.68;nan;61138.75;5034878;28;20658;-61
2023/10/08 01:33:14;;;;;;;1.40;1.30;;;;;;;15.86;nan;61401.19;5034877;28;20159;-63
2023/10/08 01:35:41;;;;;;;1.35;1.23;;;;;;;15.76;nan;61136.91;5034865;28;20176;-63
2023/10/08 01:38:08;;;;;;;1.08;0.98;;;;;;;15.83;nan;61253.56;5034841;28;20544;-62
2023/10/08 01:40:33;;;;;;;1.00;1.00;;;;;;;15.56;nan;61109.22;5034697;28;20194;-62
2023/10/08 01:43:04;;;;;;;2.75;1.13;;;;;;;15.94;nan;61166.94;5034583;28;20618;-62
2023/10/08 01:45:31;;;;;;;1.70;1.50;;;;;;;15.88;nan;61171.63;5034372;28;20191;-62
2023/10/08 01:47:57;;;;;;;1.50;1.30;;;;;;;15.94;nan;61154.63;5034827;28;20167;-63
2023/10/08 01:50:22;;;;;;;1.85;1.25;;;;;;;16.24;nan;61138.94;5034672;28;20221;-62
2023/10/08 01:52:48;;;;;;;1.77;1.13;;;;;;;16.35;nan;61205.47;5034330;28;20176;-63
2023/10/08 01:55:18;;;;;;;1.75;1.65;;;;;;;16.30;nan;61457.63;5034891;28;20270;-63
2023/10/08 01:57:44;;;;;;;1.88;1.45;;;;;;;16.22;nan;61132.09;5034487;28;20223;-63
2023/10/08 02:00:10;;;;;;;1.33;1.23;;;;;;;16.31;nan;61188.63;5033826;28;20194;-61
2023/10/08 02:02:36;;;;;;;1.40;1.30;;;;;;;16.28;nan;61290.38;5034522;28;20175;-63
2023/10/08 02:05:02;;;;;;;1.50;1.23;;;;;;;16.13;nan;61299.19;5034104;28;20225;-63
2023/10/08 02:07:28;;;;;;;0.90;0.90;;;;;;;16.15;nan;61283.41;5034244;28;20175;-63
2023/10/08 02:09:54;;;;;;;0.98;0.98;;;;;;;16.28;nan;61327.03;5034179;28;20176;-61
2023/10/08 02:12:19;;;;;;;1.35;1.27;;;;;;;16.53;nan;61300.56;5034410;28;20178;-63
2023/10/08 02:14:44;;;;;;;1.20;1.15;;;;;;;16.35;nan;61095.19;5033896;28;20218;-63
2023/10/08 02:17:10;;;;;;;1.48;1.38;;;;;;;16.25;nan;61333.38;5033701;28;20262;-63
2023/10/08 02:19:37;;;;;;;1.35;1.25;;;;;;;16.49;nan;61234.16;5034060;28;20192;-63
2023/10/08 02:22:05;;;;;;;1.67;1.45;;;;;;;16.24;nan;61219.41;5034106;28;20253;-63
2023/10/08 02:24:32;;;;;;;1.75;1.45;;;;;;;16.40;nan;61231.19;5033951;28;20263;-63
2023/10/08 02:26:59;;;;;;;2.50;2.22;;;;;;;16.30;nan;61123.06;5033904;28;20215;-63
2023/10/08 02:29:30;;;;;;;2.35;1.65;;;;;;;16.55;nan;61271.88;5033797;28;20164;-64
2023/10/08 02:31:56;;;;;;;1.48;1.38;;;;;;;16.63;nan;61260.31;5034220;28;20261;-63
2023/10/08 02:34:22;;;;;;;1.98;1.77;;;;;;;16.42;nan;61354.59;5025540;28;20238;-63
2023/10/08 02:36:47;;;;;;;1.88;1.17;;;;;;;16.45;nan;61343.09;5011641;28;20639;-63
2023/10/08 02:39:14;;;;;;;1.95;1.75;;;;;;;16.65;nan;61236.19;5013239;28;20203;-62
2023/10/08 02:41:45;;;;;;;1.30;1.23;;;;;;;16.49;nan;61310.97;5020125;28;20547;-63
2023/10/08 02:44:13;;;;;;;1.77;1.35;;;;;;;16.60;nan;61215.63;5026531;28;20183;-63
2023/10/08 02:46:47;;;;;;;2.35;1.17;;;;;;;16.46;nan;61210.13;5015464;28;20230;-63
2023/10/08 02:49:25;;;;;;;2.85;2.05;;;;;;;16.36;nan;61240.13;5029841;28;20179;-62
2023/10/08 02:51:55;;;;;;;3.00;1.48;;;;;;;16.29;nan;61284.34;5012478;28;20616;-62
2023/10/08 02:54:31;;;;;;;2.42;1.38;;;;;;;16.25;nan;61178.72;5012217;28;20669;-64
2023/10/08 02:57:03;;;;;;;1.67;1.27;;;;;;;16.35;nan;61185.41;5019587;28;20228;-63
2023/10/08 02:59:39;;;;;;;1.65;1.30;;;;;;;16.24;nan;61121.44;5008479;28;20172;-62
2023/10/08 03:02:13;;;;;;;1.38;1.27;;;;;;;16.42;nan;61164.38;5006163;28;20245;-62
2023/10/08 03:04:40;;;;;;;1.02;1.02;;;;;;;16.42;nan;61313.34;5029544;28;20178;-62
2023/10/08 03:07:11;;;;;;;1.35;1.15;;;;;;;16.53;nan;61151.00;5013812;28;20554;-63
2023/10/08 03:09:41;;;;;;;2.33;1.50;;;;;;;16.57;nan;61222.56;5012727;28;20180;-62
2023/10/08 03:12:09;;;;;;;0.90;0.90;;;;;;;16.75;nan;61376.47;5027886;28;20530;-62
2023/10/08 03:14:47;;;;;;;2.33;1.45;;;;;;;16.82;nan;61415.38;5012182;28;20191;-64
2023/10/08 03:17:19;;;;;;;1.75;1.42;;;;;;;16.72;nan;61159.53;5018070;28;20180;-63
2023/10/08 03:19:45;;;;;;;0.90;0.90;;;;;;;16.62;nan;61248.84;5016660;28;20263;-63
2023/10/08 03:22:12;;;;;;;1.20;1.10;;;;;;;16.74;nan;61215.41;5016865;28;20262;-62
2023/10/08 03:24:38;;;;;;;0.80;0.80;;;;;;;16.69;nan;61310.38;5025771;28;20183;-62
2023/10/08 03:27:20;;;;;;;1.30;1.20;;;;;;;16.53;nan;61228.38;5015438;28;20219;-63
2023/10/08 03:29:46;;;;;;;1.50;1.40;;;;;;;13.16;nan;60973.75;5024111;28;20422;-64
2023/10/08 03:32:15;;;;;;;3.90;1.60;;;;;;;16.46;nan;61204.97;5016828;28;20183;-62
2023/10/08 03:34:49;;;;;;;1.40;1.30;;;;;;;16.30;nan;61169.47;5022873;28;20180;-62
2023/10/08 03:37:20;;;;;;;1.08;1.02;;;;;;;16.39;nan;61191.38;5025461;28;20202;-63
2023/10/08 03:40:00;;;;;;;2.33;1.38;;;;;;;16.41;nan;61209.09;5013406;28;20199;-63
2023/10/08 03:42:26;;;;;;;2.70;1.25;;;;;;;16.31;nan;61327.84;5026703;28;20668;-63
2023/10/08 03:44:52;;;;;;;1.38;1.27;;;;;;;16.19;nan;61244.69;5015629;28;20195;-62
2023/10/08 03:47:26;;;;;;;1.30;1.20;;;;;;;16.20;nan;61268.44;5013866;28;20218;-63
2023/10/08 03:49:54;;;;;;;3.83;2.25;;;;;;;16.48;nan;61150.50;5021382;28;20188;-65
2023/10/08 03:52:23;;;;;;;1.63;1.38;;;;;;;16.27;nan;61183.56;5025792;28;20181;-62
2023/10/08 03:54:59;;;;;;;1.60;1.38;;;;;;;16.47;nan;61327.31;5016103;28;20184;-62
2023/10/08 03:57:41;;;;;;;1.48;1.13;;;;;;;16.53;nan;61468.19;5014665;28;20215;-62
2023/10/08 04:00:18;;;;;;;2.25;1.80;;;;;;;16.37;nan;61189.13;5032138;28;20155;-63
2023/10/08 04:02:55;;;;;;;1.25;1.10;;;;;;;16.50;nan;61307.50;5032056;28;20166;-63
2023/10/08 04:05:27;;;;;;;2.30;1.20;;;;;;;16.50;nan;61217.25;5025115;28;20690;-63
2023/10/08 04:13:09;;;;;;;1.05;0.95;;;;;;;16.75;nan;61227.41;5010510;28;20666;-63
2023/10/08 04:15:40;;;;;;;2.83;1.45;;;;;;;16.86;nan;61383.19;5018714;28;20179;-61
2023/10/08 04:18:09;;;;;;;1.13;1.02;;;;;;;16.61;nan;61160.03;5021808;28;20215;-63
2023/10/08 04:23:20;;;;;;;1.17;1.00;;;;;;;16.78;nan;61385.03;5010345;28;20681;-63
2023/10/08 04:25:53;;;;;;;0.93;0.93;;;;;;;16.67;nan;61213.22;5008000;28;20211;-62
2023/10/08 04:28:20;;;;;;;1.30;1.20;;;;;;;16.40;nan;61122.88;5014358;28;20171;-63
2023/10/08 04:30:47;;;;;;;1.70;1.60;;;;;;;16.46;nan;61317.88;5023982;28;20188;-64
2023/10/08 04:33:13;;;;;;;1.77;1.23;;;;;;;;;;5010699;28;20579;-63
2023/10/08 04:35:55;;;;;;;1.35;1.25;;;;;;;16.11;nan;61309.81;5010706;28;20685;-64
2023/10/08 04:38:25;;;;;;;1.10;1.10;;;;;;;16.42;nan;61182.41;4999235;28;20203;-63
2023/10/08 04:40:53;;;;;;;1.58;1.27;;;;;;;16.62;nan;61219.91;5013448;28;20271;-63
2023/10/08 04:43:30;;;;;;;1.40;1.30;;;;;;;16.49;nan;61229.00;5025450;28;20180;-62
2023/10/08 04:45:57;;;;;;;1.13;1.02;;;;;;;16.28;nan;61313.56;5010968;28;20239;-63
2023/10/08 04:48:23;;;;;;;0.98;0.93;;;;;;;16.55;nan;61215.16;5018167;28;20168;-63
2023/10/08 04:50:58;;;;;;;1.42;1.00;;;;;;;16.56;nan;61210.53;5009872;28;20210;-64
2023/10/08 04:53:32;;;;;;;1.20;1.10;;;;;;;16.40;nan;61151.81;5009593;28;20601;-65
2023/10/08 04:56:05;;;;;;;1.63;1.35;;;;;;;16.57;nan;61253.50;5009677;28;20267;-62
2023/10/08 04:58:33;;;;;;;0.90;0.90;;;;;;;16.43;nan;61201.03;5009590;28;20303;-62
2023/10/08 05:01:17;;;;;;;1.55;1.45;;;;;;;16.63;nan;61357.75;5024498;28;20182;-62
2023/10/08 05:17:11;;;;;;;1.27;1.27;;;;;;;17.01;nan;61255.63;5021728;28;20223;-64
2023/10/08 05:27:37;;;;;;;0.85;0.85;;;;;;;17.30;nan;61399.41;5014170;28;20245;-65
2023/10/08 05:38:22;;;;;;;0.90;0.90;;;;;;;17.97;nan;61360.94;5013740;28;20226;-62
2023/10/08 05:41:04;;;;;;;2.63;1.67;;;;;;;18.21;nan;61668.81;5011739;28;20614;-64
2023/10/08 05:54:36;;;;;;;0.80;0.80;;;;;;;18.79;nan;61459.72;5031265;28;20217;-64
2023/10/08 05:57:24;;;;;;;0.95;0.95;;;;;;;18.99;nan;61456.47;4994954;28;20234;-63
2023/10/08 06:13:06;;;;;;;1.20;1.10;;;;;;;19.51;nan;61503.81;5034407;28;20190;-63
2023/10/08 06:16:05;;;;;;;0.73;0.70;;;;;;;19.77;nan;61709.53;5034135;28;20167;-64
2023/10/08 06:18:32;;;;;;;1.13;0.85;;;;;;;19.84;nan;61605.97;5033491;28;20701;-65
2023/10/08 06:20:59;;;;;;;1.77;1.10;;;;;;;19.93;nan;61735.47;5033744;28;20179;-62
2023/10/08 06:23:28;;;;;;;1.70;1.40;;;;;;;20.07;nan;61636.66;5032289;28;20183;-64
2023/10/08 06:25:56;;;;;;;0.90;0.90;;;;;;;20.07;nan;61750.81;5034040;28;20218;-64
2023/10/08 06:28:25;;;;;;;2.53;1.52;;;;;;;20.14;nan;61564.75;5034207;28;20206;-62
2023/10/08 06:30:53;;;;;;;0.70;0.70;;;;;;;20.23;nan;61777.31;5034054;28;20258;-64
2023/10/08 06:33:20;;;;;;;1.30;1.20;;;;;;;20.00;nan;61624.09;5033807;28;20171;-64
2023/10/08 06:36:32;;;;;;;1.15;1.02;;;;;;;20.06;nan;61607.00;5033853;28;20187;-62
2023/10/08 06:38:33;;;;;;;1.45;1.35;;;;;;;20.13;nan;61638.28;5026663;28;20195;-63
2023/10/08 06:41:00;;;;;;;1.58;1.40;;;;;;;20.17;nan;61622.03;5033855;28;20193;-63
2023/10/08 06:43:28;;;;;;;4.43;1.63;;;;;;;20.06;nan;61680.19;5033622;28;20285;-64
2023/10/08 06:45:57;;;;;;;1.75;1.35;;;;;;;20.21;nan;61608.97;5033418;28;20193;-63
2023/10/08 06:48:24;;;;;;;3.08;2.25;;;;;;;20.39;nan;61693.16;5033624;28;20600;-62
2023/10/08 06:50:51;;;;;;;3.13;1.98;;;;;;;20.13;nan;61830.25;5033534;28;20174;-62
2023/10/08 06:53:21;;;;;;;4.03;2.17;;;;;;;20.54;nan;61681.59;5033454;28;20175;-63
2023/10/08 06:56:05;;;;;;;5.53;2.67;;;;;;;20.70;nan;61809.38;5033355;28;20164;-63
2023/10/08 06:58:34;;;;;;;4.78;2.72;;;;;;;20.80;nan;61694.94;5033292;28;20225;-63
2023/10/08 07:01:09;;;;;;;2.53;1.98;;;;;;;20.65;nan;61803.13;5033417;28;20182;-62
2023/10/08 07:03:37;;;;;;;2.35;1.88;;;;;;;20.80;nan;61698.13;5033328;28;20229;-63
2023/10/08 07:06:16;;;;;;;2.05;1.50;;;;;;;20.82;nan;61713.34;5033163;28;20214;-62
2023/10/08 07:08:43;;;;;;;2.15;1.63;;;;;;;20.92;nan;61826.00;5033427;28;20179;-63
2023/10/08 07:11:11;;;;;;;2.85;1.50;;;;;;;20.42;nan;61756.25;5032463;28;20175;-62
2023/10/08 07:13:39;;;;;;;2.10;1.70;;;;;;;21.23;nan;61746.31;5032818;28;20523;-64
2023/10/08 07:16:06;;;;;;;2.85;2.15;;;;;;;21.30;nan;61735.50;5033084;28;20177;-65
2023/10/08 07:18:33;;;;;;;1.42;0.80;;;;;;;21.32;nan;61750.75;5032916;28;20221;-62
2023/10/08 07:21:04;;;;;;;1.65;1.38;;;;;;;21.72;nan;61762.34;5032808;28;20708;-63
2023/10/08 07:23:34;;;;;;;1.00;1.00;;;;;;;21.65;nan;61795.44;5031747;28;20170;-63
2023/10/08 07:26:10;;;;;;;4.50;2.08;;;;;;;21.75;nan;61869.78;5032770;28;20198;-63
2023/10/08 07:28:42;;;;;;;1.25;1.15;;;;;;;22.11;nan;61857.53;5032748;28;20187;-63
2023/10/08 07:31:20;;;;;;;1.48;1.00;;;;;;;22.17;nan;61976.28;5032497;28;20164;-63
2023/10/08 07:33:57;;;;;;;1.33;1.23;;;;;;;22.27;nan;61922.56;5032409;28;20175;-62
2023/10/08 07:36:26;;;;;;;1.63;1.35;;;;;;;22.26;nan;61825.69;5031242;28;20171;-62
2023/10/08 07:38:53;;;;;;;1.35;1.13;;;;;;;21.94;nan;61942.88;5032476;28;20271;-62
2023/10/08 07:41:22;;;;;;;1.27;1.02;;;;;;;22.62;nan;61923.28;5031985;28;20558;-63
2023/10/08 07:43:58;;;;;;;1.55;1.10;;;;;;;22.67;nan;62056.63;5032376;28;20618;-64
2023/10/08 07:46:27;;;;;;;1.58;1.27;;;;;;;22.96;nan;61992.69;5031801;28;20195;-61
2023/10/08 07:48:58;;;;;;;1.30;1.20;;;;;;;22.89;nan;61914.91;5032214;28;20258;-63
2023/10/08 07:51:23;;;;;;;0.90;0.90;;;;;;;22.90;nan;61908.22;5032642;28;20175;-62
2023/10/08 07:53:58;;;;;;;1.02;1.02;;;;;;;22.96;nan;62057.84;5032256;28;20666;-63
2023/10/08 07:56:24;;;;;;;1.23;1.23;;;;;;;23.20;nan;61876.00;5032463;28;20183;-62
2023/10/08 07:58:56;;;;;;;1.10;1.00;;;;;;;23.21;nan;61984.59;5030550;28;20651;-61
2023/10/08 08:01:24;;;;;;;1.52;1.23;;;;;;;23.12;nan;61908.66;5032392;28;20536;-61
2023/10/08 08:03:50;;;;;;;0.90;0.80;;;;;;;23.29;nan;62149.59;5032131;28;20603;-65
2023/10/08 08:06:15;;;;;;;1.10;0.80;;;;;;;23.52;nan;62006.28;5031976;28;20210;-63
2023/10/08 08:08:41;;;;;;;1.25;1.15;;;;;;;23.39;nan;61962.78;5032169;28;20579;-63
2023/10/08 08:11:17;;;;;;;0.70;0.70;;;;;;;23.64;nan;62072.09;5031684;28;20229;-61
2023/10/08 08:13:43;;;;;;;1.20;1.02;;;;;;;23.68;nan;62005.63;5031819;28;20167;-64
2023/10/08 08:16:17;;;;;;;1.92;0.80;;;;;;;23.67;nan;62112.06;5032057;28;20167;-62
2023/10/08 08:18:57;;;;;;;2.80;2.17;;;;;;;23.86;nan;62101.78;5032182;28;20499;-63
2023/10/08 08:21:23;;;;;;;1.88;1.50;;;;;;;23.68;nan;62065.66;5031760;28;20621;-61
2023/10/08 08:23:49;;;;;;;0.88;0.88;;;;;;;23.98;nan;62080.97;5031719;28;20243;-63
2023/10/08 08:26:29;;;;;;;3.08;1.17;;;;;;;24.00;nan;62107.28;5031518;28;20206;-63
2023/10/08 08:29:02;;;;;;;0.90;0.90;;;;;;;24.13;nan;62085.56;5031349;28;20217;-62
2023/10/08 08:31:35;;;;;;;1.63;1.52;;;;;;;24.20;nan;62351.53;5031881;28;20171;-62
2023/10/08 08:34:17;;;;;;;1.10;0.70;;;;;;;24.45;nan;62223.34;5030946;28;20167;-62
2023/10/08 08:36:46;;;;;;;0.85;0.80;;;;;;;24.59;nan;62192.25;5031845;28;20171;-64
2023/10/08 08:39:28;;;;;;;1.27;0.80;;;;;;;24.46;nan;62247.97;5013705;28;20674;-64
2023/10/08 08:41:59;;;;;;;1.27;0.98;;;;;;;24.36;nan;62105.97;5000622;28;20183;-63
2023/10/08 08:44:29;;;;;;;1.45;0.98;;;;;;;24.69;nan;62169.13;5031599;28;20174;-63
2023/10/08 08:46:58;;;;;;;0.77;0.77;;;;;;;24.68;nan;62157.53;5020838;28;20196;-63
2023/10/08 08:49:25;;;;;;;0.65;0.65;;;;;;;24.77;nan;62172.44;5011660;28;20215;-63
2023/10/08 08:51:53;;;;;;;0.80;0.77;;;;;;;24.62;nan;62270.88;5011738;28;20203;-67
2023/10/08 08:54:20;;;;;;;1.40;0.80;;;;;;;24.93;nan;62188.06;5011647;28;20542;-63
2023/10/08 08:56:46;;;;;;;1.40;0.90;;;;;;;24.83;nan;62192.34;5010906;28;20184;-63
2023/10/08 08:59:12;;;;;;;1.88;1.20;;;;;;;25.07;nan;62196.72;5011099;28;20168;-64
2023/10/08 09:01:41;;;;;;;1.50;1.08;;;;;;;25.07;nan;62327.50;5011599;28;20180;-63
2023/10/08 09:04:07;;;;;;;1.73;0.77;;;;;;;25.29;nan;62459.31;5011104;28;20180;-63
2023/10/08 09:06:40;;;;;;;0.95;0.95;;;;;;;25.20;nan;62163.88;5011786;28;20208;-62
2023/10/08 09:09:22;;;;;;;1.35;0.95;;;;;;;25.50;nan;62244.59;5011837;28;20172;-63
2023/10/08 09:11:57;;;;;;;1.08;0.70;;;;;;;25.64;nan;62356.88;5011304;28;20168;-64
2023/10/08 09:14:26;;;;;;;3.67;1.40;;;;;;;25.66;nan;62291.09;5011721;28;20233;-63
2023/10/08 09:16:54;;;;;;;0.73;0.73;;;;;;;25.61;nan;62199.03;5011690;28;20576;-62
2023/10/08 09:19:21;;;;;;;2.20;1.05;;;;;;;25.75;nan;62327.56;5011480;28;20176;-64
2023/10/08 09:22:11;;;;;;;1.38;1.00;;;;;;;26.04;nan;62394.69;5011494;28;20184;-63
2023/10/08 09:24:41;;;;;;;0.88;0.88;;;;;;;25.75;nan;62262.66;5011468;28;20172;-64
2023/10/08 09:27:14;;;;;;;0.65;0.65;;;;;;;25.86;nan;62296.16;5011555;28;20214;-65
2023/10/08 09:29:40;;;;;;;0.90;0.90;;;;;;;26.00;nan;62295.81;5011448;28;20156;-63
2023/10/08 09:32:07;;;;;;;0.98;0.90;;;;;;;26.07;nan;62339.94;5011377;28;20238;-63
2023/10/08 09:34:33;;;;;;;1.05;0.98;;;;;;;26.29;nan;62401.75;5011359;28;20172;-62
2023/10/08 09:36:59;;;;;;;2.05;1.52;;;;;;;26.29;nan;62498.69;5010943;28;20616;-66
2023/10/08 09:39:28;;;;;;;1.23;0.93;;;;;;;26.25;nan;62492.06;5010899;28;20172;-64
2023/10/08 09:41:55;;;;;;;1.85;1.50;;;;;;;26.62;nan;62417.88;5011249;28;20229;-62
2023/10/08 09:44:21;;;;;;;1.17;0.70;;;;;;;;;;5011304;28;20176;-63
2023/10/08 09:46:53;;;;;;;0.88;0.80;;;;;;;26.72;nan;62537.41;5012344;28;20216;-63
2023/10/08 09:49:28;;;;;;;2.00;0.90;;;;;;;26.73;nan;62574.66;5014392;28;20165;-64
2023/10/08 09:51:55;;;;;;;3.70;0.80;;;;;;;26.65;nan;62437.59;5014986;28;20164;-63
2023/10/08 09:54:31;;;;;;;0.65;0.65;;;;;;;26.44;nan;62542.06;5014752;28;20180;-63
2023/10/08 09:56:58;;;;;;;1.55;0.98;;;;;;;26.62;nan;62544.31;4813392;28;20228;-63
2023/10/08 09:59:27;;;;;;;0.73;0.73;;;;;;;26.84;nan;62579.41;5015147;28;20176;-62
2023/10/08 10:01:59;;;;;;;2.92;1.48;;;;;;;26.97;nan;62491.41;5014367;28;20179;-63
2023/10/08 10:04:25;;;;;;;0.75;0.75;;;;;;;26.77;nan;62427.16;5014495;28;20176;-64
2023/10/08 10:06:51;;;;;;;0.80;0.73;;;;;;;26.86;nan;62450.00;5013069;28;20243;-62
2023/10/08 10:09:22;;;;;;;1.65;0.85;;;;;;;27.01;nan;62621.91;5014412;28;20217;-62
2023/10/08 10:11:54;;;;;;;0.70;0.70;;;;;;;27.14;nan;62576.47;5014396;28;20180;-63
2023/10/08 10:14:25;;;;;;;1.08;0.80;;;;;;;26.95;nan;62578.91;5012998;28;20176;-68
2023/10/08 10:17:20;;;;;;;1.80;1.13;;;;;;;27.20;nan;62585.94;5014431;28;20702;-63
2023/10/08 10:19:51;;;;;;;3.15;1.45;;;;;;;26.58;nan;62500.41;5014326;28;20169;-63
2023/10/08 10:22:29;;;;;;;3.47;0.80;;;;;;;26.96;nan;62666.59;5013989;28;20554;-63
2023/10/08 10:24:54;;;;;;;0.70;0.70;;;;;;;26.95;nan;62463.47;5014140;28;20180;-62
2023/10/08 10:27:21;;;;;;;2.38;0.95;;;;;;;27.28;nan;62536.78;5014010;28;20295;-63
2023/10/08 10:29:48;;;;;;;1.08;1.00;;;;;;;27.14;nan;62445.25;5013906;28;20237;-67
2023/10/08 10:32:14;;;;;;;0.75;0.75;;;;;;;27.42;nan;62550.75;5013823;28;20180;-64
2023/10/08 10:34:44;;;;;;;0.77;0.77;;;;;;;27.71;nan;62582.78;5013896;28;20187;-63
2023/10/08 10:37:19;;;;;;;1.02;0.93;;;;;;;27.65;nan;62597.53;5013557;28;20203;-62
2023/10/08 10:39:55;;;;;;;0.93;0.80;;;;;;;27.64;nan;62715.13;5013889;28;20222;-63
2023/10/08 10:42:22;;;;;;;1.98;0.80;;;;;;;27.56;nan;62621.91;5014250;28;20255;-63
2023/10/08 10:44:49;;;;;;;2.08;1.08;;;;;;;27.05;nan;62605.53;5014202;28;20164;-63
2023/10/08 10:49:52;;;;;;;4.93;1.48;;;;;;;23.11;nan;62548.84;5014039;28;20200;-64
2023/10/08 10:52:44;;;;;;;1.55;1.33;;;;;;;27.75;nan;62603.13;5013977;28;20188;-62
2023/10/08 10:57:43;;;;;;;0.82;0.73;;;;;;;28.22;nan;62719.47;5013015;28;20227;-64
2023/10/08 11:02:59;;;;;;;4.03;1.52;;;;;;;27.99;nan;62657.44;5014150;28;20237;-64
2023/10/08 11:05:38;;;;;;;3.10;1.52;;;;;;;27.99;nan;62635.84;5014194;28;20202;-64
2023/10/08 11:08:06;;;;;;;1.48;0.85;;;;;;;27.85;nan;62651.34;5012464;28;20560;-65
2023/10/08 11:10:37;;;;;;;1.77;1.30;;;;;;;28.08;nan;62623.06;5013161;28;20183;-63
2023/10/08 11:13:04;;;;;;;0.98;0.60;;;;;;;28.21;nan;62807.72;5013354;28;20165;-63
2023/10/08 11:15:40;;;;;;;1.42;0.80;;;;;;;28.30;nan;62624.03;5013375;28;20172;-64
2023/10/08 11:18:10;;;;;;;0.60;0.60;;;;;;;28.54;nan;62693.03;5013406;28;20218;-64
2023/10/08 11:20:39;;;;;;;1.65;0.80;;;;;;;28.37;nan;62697.81;5013479;28;20172;-67
2023/10/08 11:23:18;;;;;;;0.75;0.65;;;;;;;28.05;nan;62640.09;5012946;28;20172;-66
2023/10/08 11:26:05;;;;;;;1.67;1.58;;;;;;;28.13;nan;62632.94;5013133;28;20200;-63
2023/10/08 11:28:41;;;;;;;0.50;0.50;;;;;;;28.07;nan;62600.91;5012789;28;20619;-62
2023/10/08 11:31:10;;;;;;;0.43;0.43;;;;;;;28.17;nan;62748.47;5012916;28;20615;-62
2023/10/08 11:33:48;;;;;;;1.25;1.15;;;;;;;28.46;nan;62710.16;5012873;28;20172;-65
2023/10/08 11:36:19;;;;;;;3.30;1.08;;;;;;;28.43;nan;62783.00;5012761;28;20159;-64
2023/10/08 11:38:50;;;;;;;0.70;0.70;;;;;;;28.56;nan;62684.81;5012530;28;20623;-62
2023/10/08 11:41:27;;;;;;;0.80;0.80;;;;;;;28.42;nan;62774.53;5012960;28;20245;-65
2023/10/08 11:43:56;;;;;;;2.67;1.45;;;;;;;28.38;nan;62748.91;5012345;28;20241;-62
2023/10/08 11:46:38;;;;;;;0.75;0.73;;;;;;;28.15;nan;62648.94;5012423;28;20265;-64
2023/10/08 11:49:17;;;;;;;0.63;0.63;;;;;;;28.15;nan;62666.78;5012160;28;20184;-65
2023/10/08 11:51:44;;;;;;;0.93;0.93;;;;;;;28.28;nan;62740.06;5012357;28;20213;-65
2023/10/08 11:54:11;;;;;;;0.80;0.80;;;;;;;28.27;nan;62756.75;5012079;28;20593;-62
2023/10/08 11:56:38;;;;;;;3.55;0.80;;;;;;;28.42;nan;62690.38;5012099;28;20595;-63
2023/10/08 11:59:08;;;;;;;0.82;0.82;;;;;;;28.20;nan;62656.72;5012276;28;20164;-64
2023/10/08 12:01:41;;;;;;;1.02;0.93;;;;;;;28.50;nan;62667.41;5012526;28;20237;-63
2023/10/08 12:04:12;;;;;;;1.13;0.65;;;;;;;28.58;nan;62710.19;5012303;28;20255;-64
2023/10/08 12:06:46;;;;;;;0.88;0.60;;;;;;;28.39;nan;62781.59;5012372;28;20202;-64
2023/10/08 12:09:14;;;;;;;1.00;0.90;;;;;;;28.58;nan;62715.47;5011978;28;20611;-64
2023/10/08 12:11:40;;;;;;;0.70;0.70;;;;;;;28.39;nan;62749.47;5012064;28;20250;-62
2023/10/08 12:14:05;;;;;;;0.50;0.50;;;;;;;28.42;nan;62627.28;5012052;28;20255;-63
2023/10/08 12:16:35;;;;;;;7.75;2.00;;;;;;;28.76;nan;62728.75;5011800;28;20271;-63
2023/10/08 12:19:01;;;;;;;0.77;0.70;;;;;;;28.72;nan;62771.53;5011802;28;20266;-64
2023/10/08 12:21:31;;;;;;;0.90;0.80;;;;;;;28.43;nan;62809.28;5011514;28;20271;-62
2023/10/08 12:23:58;;;;;;;0.63;0.60;;;;;;;28.79;nan;62821.69;5011973;28;20172;-63
2023/10/08 12:26:24;;;;;;;1.17;1.00;;;;;;;28.64;nan;62819.66;5011562;28;20239;-63
2023/10/08 12:28:50;;;;;;;1.30;1.17;;;;;;;28.48;nan;62683.53;5011051;28;20283;-62
2023/10/08 12:31:20;;;;;;;1.48;0.65;;;;;;;28.63;nan;62686.97;5022565;28;20219;-64
2023/10/08 12:33:47;;;;;;;2.63;1.55;;;;;;;28.51;nan;62824.31;5017392;28;20302;-63
2023/10/08 12:36:12;;;;;;;1.75;0.77;;;;;;;28.75;nan;62748.69;5011495;28;20219;-63
2023/10/08 12:38:42;;;;;;;0.93;0.93;;;;;;;28.72;nan;62800.47;5030194;28;20256;-63
2023/10/08 12:41:11;;;;;;;0.70;0.70;;;;;;;28.54;nan;62845.56;5031328;28;20265;-62
2023/10/08 12:43:38;;;;;;;1.05;0.65;;;;;;;28.46;nan;62787.00;5031334;28;20175;-64
2023/10/08 12:46:10;;;;;;;0.60;0.60;;;;;;;28.38;nan;62664.19;5031258;28;20194;-67
2023/10/08 12:48:36;;;;;;;1.15;0.82;;;;;;;28.54;nan;62690.38;5031168;28;20266;-65
2023/10/08 12:51:05;;;;;;;1.52;0.98;;;;;;;28.43;nan;62899.28;5031130;28;20201;-65
2023/10/08 12:53:34;;;;;;;0.90;0.82;;;;;;;28.25;nan;62576.28;5030756;28;20615;-64
2023/10/08 12:56:06;;;;;;;1.13;0.82;;;;;;;28.34;nan;62614.91;5031214;28;20168;-64
2023/10/08 12:58:41;;;;;;;8.43;0.93;;;;;;;28.52;nan;62701.84;5030523;28;20698;-62
2023/10/08 13:01:09;;;;;;;2.30;0.93;;;;;;;28.67;nan;62694.19;5031091;28;20175;-64
2023/10/08 13:03:41;;;;;;;1.10;0.77;;;;;;;28.77;nan;62685.19;5031199;28;20216;-63
2023/10/08 13:06:11;;;;;;;0.82;0.82;;;;;;;28.81;nan;62847.66;5030497;28;20325;-64
2023/10/08 13:08:36;;;;;;;0.80;0.80;;;;;;;28.49;nan;62824.06;5031178;28;20189;-62
2023/10/08 13:11:03;;;;;;;0.85;0.85;;;;;;;28.59;nan;62748.72;5030830;28;20171;-63
2023/10/08 13:13:33;;;;;;;0.77;0.70;;;;;;;28.66;nan;62814.06;5030518;28;20574;-62
2023/10/08 13:16:02;;;;;;;0.80;0.63;;;;;;;28.61;nan;62787.28;5030873;28;20224;-62
2023/10/08 13:18:28;;;;;;;0.60;0.60;;;;;;;25.29;nan;62386.06;5028208;28;20225;-63
2023/10/08 13:20:54;;;;;;;0.73;0.73;;;;;;;28.14;nan;62715.56;5010303;28;20180;-63
2023/10/08 13:23:20;;;;;;;0.82;0.68;;;;;;;28.23;nan;62673.88;5013281;28;20634;-62
2023/10/08 13:25:54;;;;;;;3.00;1.00;;;;;;;27.99;nan;62646.38;5014001;28;20227;-63